Time;durP1;ratioP1;P1;durP2;ratioP2;P2;SDS_P1;SDS_P2;PMS_P1;PMS_P2;Temp;Humidity;BMP_temperature;BMP_pressure;BME280_temperature;BME280_humidity;BME280_pressure;Samples;Min_cycle;Max_cycle;Signal;HPM_P1;HPM_P2
2022/03/17 00:02:02;;;;;;;;;;;4.50;99.90;;;;;;5093789;28;19912;-78
2022/03/17 00:04:28;;;;;;;;;;;4.60;99.90;;;;;;5095401;28;20353;-78
2022/03/17 00:06:54;;;;;;;;;;;4.60;99.90;;;;;;5111025;28;19909;-77
2022/03/17 00:09:19;;;;;;;;;;;4.60;99.90;;;;;;5108001;28;19931;-78
2022/03/17 00:11:45;;;;;;;;;;;4.50;99.90;;;;;;5093750;28;19912;-78
2022/03/17 00:14:11;;;;;;;;;;;4.40;99.90;;;;;;5094211;28;19978;-78
2022/03/17 00:16:36;;;;;;;;;;;4.50;99.90;;;;;;5094307;28;19916;-78
2022/03/17 00:19:07;;;;;;;;;;;4.50;99.90;;;;;;5094560;28;19919;-78
2022/03/17 00:21:34;;;;;;;;;;;4.40;99.90;;;;;;5125965;27;19912;-78
2022/03/17 00:24:00;;;;;;;;;;;4.40;99.90;;;;;;5092646;28;20348;-78
2022/03/17 00:26:25;;;;;;;;;;;4.30;99.90;;;;;;5094306;28;19939;-78
2022/03/17 00:28:51;;;;;;;;;;;4.30;99.90;;;;;;5092713;28;19915;-78
2022/03/17 00:31:17;;;;;;;;;;;4.30;99.90;;;;;;5093001;28;20011;-77
2022/03/17 00:33:43;;;;;;;;;;;4.20;99.90;;;;;;5093271;28;20011;-78
2022/03/17 00:36:09;;;;;;;;;;;4.30;99.90;;;;;;5093797;28;20563;-78
2022/03/17 00:38:35;;;;;;;;;;;4.20;99.90;;;;;;5094539;28;20017;-78
2022/03/17 00:41:00;;;;;;;;;;;4.20;99.90;;;;;;5093730;28;19908;-78
2022/03/17 00:43:27;;;;;;;;;;;4.10;99.90;;;;;;5094028;28;19916;-78
2022/03/17 00:45:52;;;;;;;;;;;4.10;99.90;;;;;;5095673;28;19912;-77
2022/03/17 00:48:18;;;;;;;;;;;4.10;99.90;;;;;;5092864;28;20264;-77
2022/03/17 00:50:44;;;;;;;;;;;4.10;99.90;;;;;;5092846;28;19909;-77
2022/03/17 00:53:10;;;;;;;;;;;4.20;99.90;;;;;;5093244;28;19904;-78
2022/03/17 00:55:36;;;;;;;;;;;4.20;99.90;;;;;;5093739;28;19912;-78
2022/03/17 00:58:02;;;;;;;;;;;4.10;99.90;;;;;;5096190;28;19918;-78
2022/03/17 01:00:27;;;;;;;;;;;4.10;99.90;;;;;;5112321;28;19908;-77
2022/03/17 01:02:54;;;;;;;;;;;4.00;99.90;;;;;;5100867;28;19924;-77
2022/03/17 01:05:20;;;;;;;;;;;4.00;99.90;;;;;;5094893;28;19909;-78
2022/03/17 01:07:46;;;;;;;;;;;3.90;99.90;;;;;;5094629;28;19909;-78
2022/03/17 01:10:15;;;;;;;;;;;3.90;99.90;;;;;;5092501;28;20495;-78
2022/03/17 01:12:43;;;;;;;;;;;3.80;99.90;;;;;;5093271;28;19916;-79
2022/03/17 01:15:09;;;;;;;;;;;3.60;99.90;;;;;;5097078;28;19908;-79
2022/03/17 01:17:34;;;;;;;;;;;3.50;99.90;;;;;;5094323;28;19965;-78
2022/03/17 01:20:00;;;;;;;;;;;3.40;99.90;;;;;;5093720;28;19999;-78
2022/03/17 01:22:26;;;;;;;;;;;3.40;99.90;;;;;;5093907;28;19908;-78
2022/03/17 01:24:51;;;;;;;;;;;3.40;99.90;;;;;;5092875;28;19908;-77
2022/03/17 01:27:20;;;;;;;;;;;3.40;99.90;;;;;;5093897;28;20372;-78
2022/03/17 01:29:49;;;;;;;;;;;3.40;99.90;;;;;;5094012;28;20268;-78
2022/03/17 01:32:14;;;;;;;;;;;3.40;99.90;;;;;;5093306;28;20001;-78
2022/03/17 01:34:40;;;;;;;;;;;3.50;99.90;;;;;;5094266;28;19908;-78
2022/03/17 01:37:06;;;;;;;;;;;3.50;99.90;;;;;;5093184;28;19912;-78
2022/03/17 01:39:31;;;;;;;;;;;3.40;99.90;;;;;;5093622;28;20349;-79
2022/03/17 01:41:57;;;;;;;;;;;3.30;99.90;;;;;;5093514;28;19958;-78
2022/03/17 01:44:23;;;;;;;;;;;3.30;99.90;;;;;;5092672;28;19919;-78
2022/03/17 01:49:36;;;;;;;;;;;3.30;99.90;;;;;;5093915;28;20008;-77
2022/03/17 01:52:01;;;;;;;;;;;3.30;99.90;;;;;;5092786;28;19951;-77
2022/03/17 01:54:27;;;;;;;;;;;3.30;99.90;;;;;;5093649;28;19915;-78
2022/03/17 01:56:52;;;;;;;;;;;3.30;99.90;;;;;;5093176;28;19959;-78
2022/03/17 01:59:18;;;;;;;;;;;3.30;99.90;;;;;;5093481;28;19975;-77
2022/03/17 02:01:45;;;;;;;;;;;3.30;99.90;;;;;;5093453;28;19908;-77
2022/03/17 02:04:10;;;;;;;;;;;3.30;99.90;;;;;;5092544;28;20007;-78
2022/03/17 02:06:37;;;;;;;;;;;3.30;99.90;;;;;;5093381;28;19957;-78
2022/03/17 02:09:03;;;;;;;;;;;3.30;99.90;;;;;;5093000;28;19969;-78
2022/03/17 02:14:34;;;;;;;;;;;3.30;99.90;;;;;;5050849;28;19909;-78
2022/03/17 02:17:00;;;;;;;;;;;3.30;99.90;;;;;;5050104;28;19913;-77
2022/03/17 02:19:25;;;;;;;;;;;3.30;99.90;;;;;;5070321;28;20300;-78
2022/03/17 02:21:51;;;;;;;;;;;3.20;99.90;;;;;;5093022;28;19908;-77
2022/03/17 02:27:01;;;;;;;;;;;3.20;99.90;;;;;;5092412;28;19915;-77
2022/03/17 02:29:27;;;;;;;;;;;3.10;99.90;;;;;;5093605;28;19931;-78
2022/03/17 02:31:53;;;;;;;;;;;3.10;99.90;;;;;;5106982;28;19912;-78
2022/03/17 02:34:19;;;;;;;;;;;3.10;99.90;;;;;;5104606;28;19912;-78
2022/03/17 02:36:48;;;;;;;;;;;3.10;99.90;;;;;;5092755;28;20323;-77
2022/03/17 02:39:15;;;;;;;;;;;3.00;99.90;;;;;;5092095;28;20014;-78
2022/03/17 02:41:40;;;;;;;;;;;3.00;99.90;;;;;;5092988;28;19955;-78
2022/03/17 02:44:06;;;;;;;;;;;2.90;99.90;;;;;;5092487;28;19967;-77
2022/03/17 02:46:32;;;;;;;;;;;2.90;99.90;;;;;;5093008;28;19916;-78
2022/03/17 02:48:57;;;;;;;;;;;2.90;99.90;;;;;;5092645;28;19915;-76
2022/03/17 02:51:23;;;;;;;;;;;2.80;99.90;;;;;;5092613;28;19962;-77
2022/03/17 02:53:48;;;;;;;;;;;2.70;99.90;;;;;;5092729;28;20418;-78
2022/03/17 02:56:14;;;;;;;;;;;2.70;99.90;;;;;;5092529;28;19913;-77
2022/03/17 02:58:39;;;;;;;;;;;2.60;99.90;;;;;;5092823;28;19994;-78
2022/03/17 03:01:05;;;;;;;;;;;2.60;99.90;;;;;;5092054;28;19914;-78
2022/03/17 03:03:31;;;;;;;;;;;2.70;99.90;;;;;;5092300;28;19920;-78
2022/03/17 03:05:56;;;;;;;;;;;2.70;99.90;;;;;;5092635;28;19908;-78
2022/03/17 03:08:22;;;;;;;;;;;2.70;99.90;;;;;;5092214;28;19909;-78
2022/03/17 03:10:47;;;;;;;;;;;2.80;99.90;;;;;;5092665;28;19911;-78
2022/03/17 03:13:13;;;;;;;;;;;2.90;99.90;;;;;;5092091;28;19967;-78
2022/03/17 03:15:39;;;;;;;;;;;3.10;99.90;;;;;;5092610;28;20006;-78
2022/03/17 03:18:05;;;;;;;;;;;3.30;99.90;;;;;;5098476;28;20321;-77
2022/03/17 03:20:31;;;;;;;;;;;3.50;99.90;;;;;;5092230;28;19995;-78
2022/03/17 03:22:57;;;;;;;;;;;3.60;99.90;;;;;;5092620;28;19951;-78
2022/03/17 03:25:23;;;;;;;;;;;3.80;99.90;;;;;;5092017;28;19916;-78
2022/03/17 03:27:48;;;;;;;;;;;3.80;99.90;;;;;;5092485;28;19915;-78
2022/03/17 03:30:14;;;;;;;;;;;4.00;99.90;;;;;;5091822;28;20356;-77
2022/03/17 03:32:40;;;;;;;;;;;4.00;99.90;;;;;;5091387;28;19908;-78
2022/03/17 03:37:51;;;;;;;;;;;4.10;99.90;;;;;;5096646;28;19919;-78
2022/03/17 03:40:16;;;;;;;;;;;4.20;99.90;;;;;;5095906;28;19908;-77
2022/03/17 03:42:42;;;;;;;;;;;4.20;99.90;;;;;;5096065;28;19908;-77
2022/03/17 03:45:08;;;;;;;;;;;4.20;99.90;;;;;;5095540;28;19914;-78
2022/03/17 03:47:33;;;;;;;;;;;4.30;99.90;;;;;;5096338;28;20349;-78
2022/03/17 03:49:59;;;;;;;;;;;4.40;99.90;;;;;;5095813;28;20301;-78
2022/03/17 03:52:24;;;;;;;;;;;4.40;99.90;;;;;;5098157;28;19908;-78
2022/03/17 03:54:50;;;;;;;;;;;4.50;99.90;;;;;;5096097;28;19908;-78
2022/03/17 03:57:16;;;;;;;;;;;4.60;99.90;;;;;;5094178;28;19938;-77
2022/03/17 03:59:42;;;;;;;;;;;4.70;99.90;;;;;;5095799;28;19918;-78
2022/03/17 04:02:09;;;;;;;;;;;4.70;99.90;;;;;;5106235;28;19975;-76
2022/03/17 04:04:35;;;;;;;;;;;4.80;99.90;;;;;;5100212;28;19908;-78
2022/03/17 04:07:02;;;;;;;;;;;4.80;99.90;;;;;;5095657;28;19915;-78
2022/03/17 04:09:28;;;;;;;;;;;4.80;99.90;;;;;;5095402;28;19912;-78
2022/03/17 04:11:54;;;;;;;;;;;4.90;99.90;;;;;;5094530;28;19961;-78
2022/03/17 04:14:20;;;;;;;;;;;4.90;99.90;;;;;;5095098;28;19912;-78
2022/03/17 04:16:46;;;;;;;;;;;4.90;99.90;;;;;;5095605;28;19916;-78
2022/03/17 04:19:12;;;;;;;;;;;4.90;99.90;;;;;;5095061;28;20364;-78
2022/03/17 04:21:38;;;;;;;;;;;4.90;99.90;;;;;;5095378;28;19908;-78
2022/03/17 04:24:04;;;;;;;;;;;4.90;99.90;;;;;;5095364;28;19969;-77
2022/03/17 04:26:30;;;;;;;;;;;4.90;99.90;;;;;;5095321;28;19908;-78
2022/03/17 04:28:56;;;;;;;;;;;5.00;99.90;;;;;;5094951;28;19908;-78
2022/03/17 04:31:21;;;;;;;;;;;5.00;99.90;;;;;;5094693;28;19908;-78
2022/03/17 04:33:47;;;;;;;;;;;4.90;99.90;;;;;;5095378;28;20358;-78
2022/03/17 04:36:13;;;;;;;;;;;5.00;99.90;;;;;;5094132;28;20391;-78
2022/03/17 04:38:39;;;;;;;;;;;4.90;99.90;;;;;;5095309;28;19912;-78
2022/03/17 04:41:05;;;;;;;;;;;4.90;99.90;;;;;;5094824;28;19999;-77
2022/03/17 04:43:30;;;;;;;;;;;5.00;99.90;;;;;;5094584;28;19908;-78
2022/03/17 04:45:56;;;;;;;;;;;5.00;99.90;;;;;;5109670;28;20317;-78
2022/03/17 04:48:22;;;;;;;;;;;5.00;99.90;;;;;;5102039;28;19912;-78
2022/03/17 04:50:47;;;;;;;;;;;5.00;99.90;;;;;;5095059;28;20346;-78
2022/03/17 04:53:29;;;;;;;;;;;5.10;99.90;;;;;;5092859;28;19912;-77
2022/03/17 04:56:02;;;;;;;;;;;5.10;99.90;;;;;;5094862;28;20372;-78
2022/03/17 04:58:29;;;;;;;;;;;5.10;99.90;;;;;;5094348;28;19973;-78
2022/03/17 05:00:56;;;;;;;;;;;5.20;99.90;;;;;;5094916;28;19908;-78
2022/03/17 05:03:21;;;;;;;;;;;5.20;99.90;;;;;;5093813;28;20304;-78
2022/03/17 05:05:47;;;;;;;;;;;5.20;99.90;;;;;;5094528;28;19914;-78
2022/03/17 05:08:13;;;;;;;;;;;5.20;99.90;;;;;;5094152;28;19919;-77
2022/03/17 05:10:40;;;;;;;;;;;5.20;99.90;;;;;;5110540;28;19930;-78
2022/03/17 05:13:06;;;;;;;;;;;5.20;99.90;;;;;;5096556;28;19909;-78
2022/03/17 05:15:32;;;;;;;;;;;5.20;99.90;;;;;;5094050;28;20380;-78
2022/03/17 05:17:58;;;;;;;;;;;5.20;99.90;;;;;;5094443;28;19919;-79
2022/03/17 05:20:24;;;;;;;;;;;5.30;99.90;;;;;;5093921;28;19908;-78
2022/03/17 05:22:50;;;;;;;;;;;5.20;99.90;;;;;;5094353;28;19953;-78
2022/03/17 05:25:16;;;;;;;;;;;5.30;99.90;;;;;;5094093;28;19930;-77
2022/03/17 05:27:42;;;;;;;;;;;5.30;99.90;;;;;;5095887;28;19908;-77
2022/03/17 05:30:09;;;;;;;;;;;5.40;99.90;;;;;;5110687;28;19954;-76
2022/03/17 05:32:34;;;;;;;;;;;5.50;99.90;;;;;;5096121;28;19908;-77
2022/03/17 05:35:00;;;;;;;;;;;5.50;99.90;;;;;;5094041;28;19954;-77
2022/03/17 05:37:25;;;;;;;;;;;5.60;99.90;;;;;;5093461;28;19912;-80
2022/03/17 05:39:51;;;;;;;;;;;5.60;99.90;;;;;;5094178;28;19912;-77
2022/03/17 05:42:17;;;;;;;;;;;5.50;99.90;;;;;;5093406;28;19970;-77
2022/03/17 05:44:42;;;;;;;;;;;5.60;99.90;;;;;;5094085;28;19918;-77
2022/03/17 05:47:08;;;;;;;;;;;5.70;99.90;;;;;;5093968;28;19908;-77
2022/03/17 05:49:34;;;;;;;;;;;5.70;99.90;;;;;;5093291;28;20357;-77
2022/03/17 05:51:59;;;;;;;;;;;5.70;99.90;;;;;;5093649;28;19908;-79
2022/03/17 05:54:25;;;;;;;;;;;5.80;99.90;;;;;;5093307;28;19908;-76
2022/03/17 05:56:51;;;;;;;;;;;5.90;99.90;;;;;;5093070;28;20370;-78
2022/03/17 05:59:16;;;;;;;;;;;5.90;99.90;;;;;;5092775;28;20013;-77
2022/03/17 06:01:42;;;;;;;;;;;6.00;99.90;;;;;;5093515;28;19908;-78
2022/03/17 06:04:07;;;;;;;;;;;6.00;99.90;;;;;;5093871;28;19991;-77
2022/03/17 06:06:33;;;;;;;;;;;6.00;99.90;;;;;;5092897;28;19916;-78
2022/03/17 06:08:59;;;;;;;;;;;6.10;99.90;;;;;;5093729;28;20429;-78
2022/03/17 06:11:25;;;;;;;;;;;6.20;99.90;;;;;;5096726;28;19925;-77
2022/03/17 06:13:53;;;;;;;;;;;6.10;99.90;;;;;;5110195;28;19908;-77
2022/03/17 06:16:20;;;;;;;;;;;6.20;99.90;;;;;;5093074;28;19912;-77
2022/03/17 06:18:46;;;;;;;;;;;6.20;99.90;;;;;;5092248;28;20345;-77
2022/03/17 06:21:12;;;;;;;;;;;6.30;99.90;;;;;;5093207;28;19935;-77
2022/03/17 06:23:37;;;;;;;;;;;6.40;99.90;;;;;;5093042;28;20338;-78
2022/03/17 06:26:03;;;;;;;;;;;6.50;99.90;;;;;;5093113;28;19912;-78
2022/03/17 06:28:29;;;;;;;;;;;6.50;99.90;;;;;;5094630;28;19915;-78
2022/03/17 06:30:54;;;;;;;;;;;6.60;99.90;;;;;;5095530;28;19908;-78
2022/03/17 06:33:20;;;;;;;;;;;6.60;99.90;;;;;;5092682;28;20369;-78
2022/03/17 06:35:46;;;;;;;;;;;6.70;99.90;;;;;;5093017;28;19912;-78
2022/03/17 06:38:11;;;;;;;;;;;6.80;99.90;;;;;;5093073;28;19927;-79
2022/03/17 06:40:37;;;;;;;;;;;6.80;99.90;;;;;;5092261;28;19912;-79
2022/03/17 06:43:03;;;;;;;;;;;6.80;99.90;;;;;;5092946;28;19916;-78
2022/03/17 06:45:29;;;;;;;;;;;6.80;99.90;;;;;;5092511;28;20311;-78
2022/03/17 06:47:55;;;;;;;;;;;6.90;99.90;;;;;;5093022;28;19963;-79
2022/03/17 06:50:21;;;;;;;;;;;6.90;99.90;;;;;;5092416;28;19908;-78
2022/03/17 06:52:47;;;;;;;;;;;6.90;99.90;;;;;;5092852;28;20269;-78
2022/03/17 06:55:13;;;;;;;;;;;6.90;99.90;;;;;;5102002;28;20084;-77
2022/03/17 06:57:39;;;;;;;;;;;6.90;99.90;;;;;;5104394;28;19916;-80
2022/03/17 07:00:09;;;;;;;;;;;7.00;99.90;;;;;;5093228;28;20037;-80
2022/03/17 07:02:34;;;;;;;;;;;7.00;99.90;;;;;;5091967;28;20030;-78
2022/03/17 07:05:00;;;;;;;;;;;7.00;99.90;;;;;;5092831;28;19947;-77
2022/03/17 07:07:27;;;;;;;;;;;7.00;99.90;;;;;;5092478;28;19916;-77
2022/03/17 07:09:53;;;;;;;;;;;7.10;99.90;;;;;;5096645;28;19931;-78
2022/03/17 07:12:18;;;;;;;;;;;7.10;99.90;;;;;;5096259;28;19916;-77
2022/03/17 07:14:44;;;;;;;;;;;7.10;99.90;;;;;;5096950;28;20343;-78
2022/03/17 07:17:10;;;;;;;;;;;7.20;99.90;;;;;;5096905;28;19913;-78
2022/03/17 07:19:36;;;;;;;;;;;7.20;99.90;;;;;;5096145;28;19922;-78
2022/03/17 07:22:02;;;;;;;;;;;7.30;99.90;;;;;;5096706;28;19995;-78
2022/03/17 07:24:27;;;;;;;;;;;7.30;99.90;;;;;;5096024;28;19912;-79
2022/03/17 07:26:53;;;;;;;;;;;7.40;99.90;;;;;;5096675;28;19956;-77
2022/03/17 07:29:19;;;;;;;;;;;7.50;99.90;;;;;;5095854;28;19914;-77
2022/03/17 07:31:45;;;;;;;;;;;7.50;99.90;;;;;;5096321;28;19908;-78
2022/03/17 07:34:10;;;;;;;;;;;7.60;99.90;;;;;;5096408;28;20357;-78
2022/03/17 07:36:36;;;;;;;;;;;7.60;99.90;;;;;;5095742;28;20023;-78
2022/03/17 07:39:02;;;;;;;;;;;7.60;99.90;;;;;;5107899;28;19912;-77
2022/03/17 07:41:28;;;;;;;;;;;7.60;99.90;;;;;;5101582;28;20341;-77
2022/03/17 07:43:54;;;;;;;;;;;7.70;99.90;;;;;;5095148;28;20272;-79
2022/03/17 07:46:19;;;;;;;;;;;7.80;99.90;;;;;;5095604;28;19908;-78
2022/03/17 07:48:45;;;;;;;;;;;7.80;99.90;;;;;;5096097;28;20024;-79
2022/03/17 07:51:11;;;;;;;;;;;7.80;99.90;;;;;;5096090;28;19917;-79
2022/03/17 07:53:37;;;;;;;;;;;7.70;99.90;;;;;;5095450;28;19912;-78
2022/03/17 07:56:03;;;;;;;;;;;7.90;99.90;;;;;;5095847;28;19916;-78
2022/03/17 07:58:29;;;;;;;;;;;7.90;99.90;;;;;;5093979;28;19912;-77
2022/03/17 08:00:56;;;;;;;;;;;8.10;99.90;;;;;;5096070;28;19909;-78
2022/03/17 08:03:22;;;;;;;;;;;8.30;99.90;;;;;;5094908;28;19920;-77
2022/03/17 08:05:48;;;;;;;;;;;8.50;99.90;;;;;;5095800;28;20279;-77
2022/03/17 08:08:14;;;;;;;;;;;8.70;99.90;;;;;;5095620;28;19912;-78
2022/03/17 08:10:39;;;;;;;;;;;8.70;99.90;;;;;;5094866;28;20070;-78
2022/03/17 08:13:06;;;;;;;;;;;8.80;99.90;;;;;;5095644;28;20283;-78
2022/03/17 08:15:31;;;;;;;;;;;9.00;99.90;;;;;;5095454;28;19916;-78
2022/03/17 08:17:57;;;;;;;;;;;9.10;99.90;;;;;;5098348;28;19912;-78
2022/03/17 08:20:23;;;;;;;;;;;9.10;99.90;;;;;;5095146;28;19963;-77
2022/03/17 08:22:50;;;;;;;;;;;9.10;99.90;;;;;;5110492;28;19908;-78
2022/03/17 08:25:16;;;;;;;;;;;9.10;99.90;;;;;;5099665;28;19908;-78
2022/03/17 08:27:42;;;;;;;;;;;9.10;99.90;;;;;;5094959;28;20003;-78
2022/03/17 08:30:08;;;;;;;;;;;9.10;99.90;;;;;;5095354;28;20394;-78
2022/03/17 08:32:34;;;;;;;;;;;9.20;99.90;;;;;;5094471;28;19919;-78
2022/03/17 08:34:59;;;;;;;;;;;9.20;99.90;;;;;;5095201;28;19908;-78
2022/03/17 08:37:25;;;;;;;;;;;9.30;99.90;;;;;;5095488;28;19958;-77
2022/03/17 08:39:50;;;;;;;;;;;9.40;99.90;;;;;;5095188;28;19912;-78
2022/03/17 08:42:16;;;;;;;;;;;9.40;99.90;;;;;;5094780;28;19908;-78
2022/03/17 08:44:41;;;;;;;;;;;9.40;99.90;;;;;;5094306;28;20015;-77
2022/03/17 08:49:51;;;;;;;;;;;9.70;99.90;;;;;;5094683;28;19916;-78
2022/03/17 08:52:19;;;;;;;;;;;9.90;99.90;;;;;;5094455;28;19908;-78
2022/03/17 08:54:45;;;;;;;;;;;10.00;99.90;;;;;;5094079;28;19904;-78
2022/03/17 08:57:11;;;;;;;;;;;10.10;99.90;;;;;;5094273;28;20254;-78
2022/03/17 08:59:37;;;;;;;;;;;10.20;99.90;;;;;;5094061;28;20007;-80
2022/03/17 09:02:07;;;;;;;;;;;10.10;99.90;;;;;;5094392;28;19947;-78
2022/03/17 09:04:33;;;;;;;;;;;10.30;99.90;;;;;;5099429;28;19958;-78
2022/03/17 09:07:00;;;;;;;;;;;10.30;99.90;;;;;;5111494;28;19908;-77
2022/03/17 09:09:26;;;;;;;;;;;10.30;99.90;;;;;;5094311;28;19957;-76
2022/03/17 09:11:52;;;;;;;;;;;10.40;99.90;;;;;;5094886;28;19908;-77
2022/03/17 09:14:17;;;;;;;;;;;10.40;99.90;;;;;;5094508;28;19953;-77
2022/03/17 09:16:43;;;;;;;;;;;10.50;99.90;;;;;;5093829;28;19959;-77
2022/03/17 09:19:09;;;;;;;;;;;10.50;99.90;;;;;;5094440;28;19934;-77
2022/03/17 09:21:35;;;;;;;;;;;10.50;99.90;;;;;;5093750;28;19914;-77
2022/03/17 09:24:01;;;;;;;;;;;10.50;99.90;;;;;;5094232;28;19909;-76
2022/03/17 09:26:27;;;;;;;;;;;10.50;99.90;;;;;;5093556;28;19984;-76
2022/03/17 09:28:52;;;;;;;;;;;10.50;99.90;;;;;;5093679;28;19914;-76
2022/03/17 09:31:18;;;;;;;;;;;10.50;99.90;;;;;;5092731;28;19908;-76
2022/03/17 09:33:45;;;;;;;;;;;10.70;99.90;;;;;;5093024;28;19969;-77
2022/03/17 09:36:11;;;;;;;;;;;10.70;99.90;;;;;;5094513;28;19912;-76
2022/03/17 09:38:36;;;;;;;;;;;10.80;99.90;;;;;;5093308;28;19912;-77
2022/03/17 09:41:23;;;;;;;;;;;11.00;99.90;;;;;;5093666;28;20269;-76
2022/03/17 09:43:47;;;;;;;;;;;11.00;99.90;;;;;;5093176;28;20176;-75
2022/03/17 09:46:15;;;;;;;;;;;11.00;99.90;;;;;;5093799;28;20407;-76
2022/03/17 09:48:42;;;;;;;;;;;11.00;99.90;;;;;;5093110;28;19908;-76
2022/03/17 09:51:07;;;;;;;;;;;11.10;99.90;;;;;;5103636;28;19912;-79
2022/03/17 09:53:40;;;;;;;;;;;11.10;99.90;;;;;;5118202;27;20285;-77
2022/03/17 09:56:06;;;;;;;;;;;11.10;99.90;;;;;;5110502;28;19955;-77
2022/03/17 09:58:31;;;;;;;;;;;11.10;99.90;;;;;;5109841;28;19912;-77
2022/03/17 10:00:59;;;;;;;;;;;11.20;99.90;;;;;;5110075;28;19915;-76
2022/03/17 10:03:26;;;;;;;;;;;11.20;99.90;;;;;;5110518;28;19908;-76
2022/03/17 10:05:52;;;;;;;;;;;11.30;99.90;;;;;;5109473;28;19908;-76
2022/03/17 10:08:20;;;;;;;;;;;11.30;99.90;;;;;;5110308;28;20015;-77
2022/03/17 10:10:46;;;;;;;;;;;11.30;99.90;;;;;;5109739;28;19916;-78
2022/03/17 10:13:14;;;;;;;;;;;11.40;99.90;;;;;;5110006;28;19920;-78
2022/03/17 10:15:41;;;;;;;;;;;11.40;99.90;;;;;;5109587;28;19922;-78
2022/03/17 10:18:19;;;;;;;;;;;11.40;99.90;;;;;;5110179;28;19998;-78
2022/03/17 10:20:46;;;;;;;;;;;11.40;99.90;;;;;;5109614;28;20379;-77
2022/03/17 10:23:11;;;;;;;;;;;11.40;99.90;;;;;;5109793;28;20350;-78
2022/03/17 10:25:37;;;;;;;;;;;11.50;99.90;;;;;;5109120;28;19908;-78
2022/03/17 10:28:03;;;;;;;;;;;11.60;99.90;;;;;;5109815;28;20010;-78
2022/03/17 10:30:37;;;;;;;;;;;11.60;99.90;;;;;;5110120;28;19919;-78
2022/03/17 10:33:15;;;;;;;;;;;11.70;99.90;;;;;;5110160;28;19989;-78
2022/03/17 10:35:45;;;;;;;;;;;12.00;99.90;;;;;;5109246;28;19947;-78
2022/03/17 10:38:18;;;;;;;;;;;12.20;99.90;;;;;;5112930;28;19954;-78
2022/03/17 10:40:45;;;;;;;;;;;12.10;99.90;;;;;;5126248;28;19908;-79
2022/03/17 10:43:17;;;;;;;;;;;12.20;99.90;;;;;;5111944;28;19912;-79
2022/03/17 10:45:43;;;;;;;;;;;12.30;99.90;;;;;;5109227;28;19961;-76
2022/03/17 10:48:09;;;;;;;;;;;12.40;99.90;;;;;;5109596;28;19908;-76
2022/03/17 10:50:38;;;;;;;;;;;12.60;99.90;;;;;;5107325;28;20330;-76
2022/03/17 10:53:04;;;;;;;;;;;12.50;99.90;;;;;;5109516;28;19942;-77
2022/03/17 10:55:33;;;;;;;;;;;12.60;99.90;;;;;;5109717;28;20337;-77
2022/03/17 10:58:15;;;;;;;;;;;12.60;99.90;;;;;;5109714;28;19915;-77
2022/03/17 11:00:44;;;;;;;;;;;12.80;99.90;;;;;;5108748;28;19908;-76
2022/03/17 11:03:10;;;;;;;;;;;12.80;99.90;;;;;;5106331;28;20425;-77
2022/03/17 11:05:36;;;;;;;;;;;12.80;99.90;;;;;;5094736;28;20011;-76
2022/03/17 11:08:02;;;;;;;;;;;12.80;99.90;;;;;;5095646;28;19912;-77
2022/03/17 11:10:28;;;;;;;;;;;12.90;99.90;;;;;;5095688;28;19908;-76
2022/03/17 11:12:54;;;;;;;;;;;13.00;99.90;;;;;;5095479;28;19919;-77
2022/03/17 11:15:27;;;;;;;;;;;12.90;99.90;;;;;;5097997;28;19912;-76
2022/03/17 11:17:54;;;;;;;;;;;12.90;99.90;;;;;;5098496;28;19931;-78
2022/03/17 11:20:22;;;;;;;;;;;13.00;99.90;;;;;;5095556;28;19915;-78
2022/03/17 11:23:06;;;;;;;;;;;13.00;99.90;;;;;;5093681;28;19908;-78
2022/03/17 11:25:34;;;;;;;;;;;13.00;99.90;;;;;;5095158;28;20014;-78
2022/03/17 11:28:01;;;;;;;;;;;13.20;99.90;;;;;;5103285;28;19909;-79
2022/03/17 11:30:46;;;;;;;;;;;13.20;99.90;;;;;;5107711;28;19916;-78
2022/03/17 11:33:21;;;;;;;;;;;13.10;99.90;;;;;;5094260;28;20253;-78
2022/03/17 11:35:54;;;;;;;;;;;13.00;99.90;;;;;;5094192;28;20434;-78
2022/03/17 11:38:23;;;;;;;;;;;13.00;99.90;;;;;;5094999;28;19915;-78
2022/03/17 11:41:04;;;;;;;;;;;12.90;99.90;;;;;;5094265;28;19951;-78
2022/03/17 11:43:38;;;;;;;;;;;12.90;99.90;;;;;;5095045;28;19936;-78
2022/03/17 11:46:13;;;;;;;;;;;12.80;99.90;;;;;;5094495;28;20353;-78
2022/03/17 11:48:39;;;;;;;;;;;12.80;99.90;;;;;;5092771;28;19915;-78
2022/03/17 11:51:06;;;;;;;;;;;12.70;99.90;;;;;;5094687;28;19953;-79
2022/03/17 11:53:39;;;;;;;;;;;12.60;99.90;;;;;;5094125;28;19967;-78
2022/03/17 11:56:05;;;;;;;;;;;12.60;99.90;;;;;;5094595;28;19912;-78
2022/03/17 11:58:42;;;;;;;;;;;12.60;99.90;;;;;;5094626;28;19908;-78
2022/03/17 12:01:12;;;;;;;;;;;12.60;99.90;;;;;;5094545;28;19961;-78
2022/03/17 12:03:51;;;;;;;;;;;12.50;99.90;;;;;;5094117;28;20011;-77
2022/03/17 12:06:19;;;;;;;;;;;12.50;99.90;;;;;;5094546;28;19916;-78
2022/03/17 12:08:52;;;;;;;;;;;12.60;99.90;;;;;;5095348;28;20403;-78
2022/03/17 12:11:19;;;;;;;;;;;12.60;99.90;;;;;;5094075;28;20377;-78
2022/03/17 12:14:03;;;;;;;;;;;12.60;99.90;;;;;;5093890;28;20369;-78
2022/03/17 12:16:40;;;;;;;;;;;12.60;99.90;;;;;;5084504;28;19960;-78
2022/03/17 12:19:05;;;;;;;;;;;12.70;99.90;;;;;;5103631;28;19908;-78
2022/03/17 12:21:49;;;;;;;;;;;12.80;99.90;;;;;;5093049;28;20284;-78
2022/03/17 12:24:32;;;;;;;;;;;12.90;99.90;;;;;;5093536;28;19912;-78
2022/03/17 12:27:12;;;;;;;;;;;13.00;99.90;;;;;;5092981;28;20361;-78
2022/03/17 12:29:38;;;;;;;;;;;13.00;99.90;;;;;;5093316;28;19954;-78
2022/03/17 12:32:05;;;;;;;;;;;13.00;99.90;;;;;;5093188;28;19960;-79
2022/03/17 12:34:32;;;;;;;;;;;13.20;99.90;;;;;;5093479;28;20353;-78
2022/03/17 12:36:59;;;;;;;;;;;13.30;99.90;;;;;;5092837;28;19912;-78
2022/03/17 12:39:28;;;;;;;;;;;13.40;99.90;;;;;;5093176;28;19915;-78
2022/03/17 12:41:55;;;;;;;;;;;13.40;99.90;;;;;;5092714;28;19908;-78
2022/03/17 12:44:21;;;;;;;;;;;13.50;99.90;;;;;;5093284;28;19999;-78
2022/03/17 12:46:47;;;;;;;;;;;13.60;99.90;;;;;;5092604;28;19947;-78
2022/03/17 12:49:13;;;;;;;;;;;13.60;99.90;;;;;;5093351;28;19958;-78
2022/03/17 12:51:39;;;;;;;;;;;13.70;99.90;;;;;;5092459;28;20012;-77
2022/03/17 12:54:04;;;;;;;;;;;13.90;99.90;;;;;;5092634;28;19907;-78
2022/03/17 12:56:30;;;;;;;;;;;14.10;99.90;;;;;;5092935;28;19908;-79
2022/03/17 12:59:03;;;;;;;;;;;14.30;99.90;;;;;;5092532;28;20002;-78
2022/03/17 13:01:29;;;;;;;;;;;14.50;99.90;;;;;;5093060;28;20312;-79
2022/03/17 13:03:54;;;;;;;;;;;14.60;99.90;;;;;;5092297;28;19916;-78
2022/03/17 13:09:05;;;;;;;;;;;14.60;99.90;;;;;;5092152;28;19916;-78
2022/03/17 13:14:21;;;;;;;;;;;14.50;99.90;;;;;;5092869;28;19915;-78
2022/03/17 13:16:57;;;;;;;;;;;14.40;99.90;;;;;;5092327;28;20261;-78
2022/03/17 13:19:22;;;;;;;;;;;14.40;99.90;;;;;;5093628;28;19908;-79
2022/03/17 13:21:51;;;;;;;;;;;14.30;99.90;;;;;;5092216;28;19915;-78
2022/03/17 13:24:17;;;;;;;;;;;14.30;99.90;;;;;;5092558;28;19908;-79
2022/03/17 13:26:42;;;;;;;;;;;14.20;99.90;;;;;;5092019;28;19912;-78
2022/03/17 13:29:12;;;;;;;;;;;14.20;99.90;;;;;;5092537;28;19908;-78
2022/03/17 13:31:44;;;;;;;;;;;14.20;99.90;;;;;;5091133;28;20360;-78
2022/03/17 13:34:29;;;;;;;;;;;14.20;99.90;;;;;;5092460;28;19916;-78
2022/03/17 13:36:56;;;;;;;;;;;14.20;99.90;;;;;;5092136;28;20012;-78
2022/03/17 13:39:28;;;;;;;;;;;14.30;99.90;;;;;;5092169;28;19919;-78
2022/03/17 13:42:13;;;;;;;;;;;14.40;99.90;;;;;;5090579;28;19934;-78
2022/03/17 13:44:41;;;;;;;;;;;14.40;99.90;;;;;;5092450;28;19908;-78
2022/03/17 13:47:18;;;;;;;;;;;14.40;99.90;;;;;;5092151;28;19953;-78
2022/03/17 13:50:02;;;;;;;;;;;14.50;99.90;;;;;;5091697;28;19908;-78
2022/03/17 13:52:27;;;;;;;;;;;14.50;99.90;;;;;;5091643;28;19928;-78
2022/03/17 13:54:55;;;;;;;;;;;14.40;99.90;;;;;;5091692;28;20273;-78
2022/03/17 13:57:20;;;;;;;;;;;14.30;99.90;;;;;;5091063;28;20393;-78
2022/03/17 13:59:46;;;;;;;;;;;14.20;99.90;;;;;;5091616;28;20029;-77
2022/03/17 14:02:12;;;;;;;;;;;14.20;99.90;;;;;;5092122;28;19919;-78
2022/03/17 14:04:51;;;;;;;;;;;14.20;99.90;;;;;;5091767;28;20297;-78
2022/03/17 14:07:16;;;;;;;;;;;14.20;99.90;;;;;;5092271;28;19908;-78
2022/03/17 14:09:42;;;;;;;;;;;14.20;99.90;;;;;;5091908;28;19927;-78
2022/03/17 14:12:07;;;;;;;;;;;14.30;99.90;;;;;;5092238;28;19916;-79
2022/03/17 14:14:36;;;;;;;;;;;14.30;99.90;;;;;;5092387;28;20346;-78
2022/03/17 14:17:01;;;;;;;;;;;14.40;99.90;;;;;;5091265;28;19991;-78
2022/03/17 14:19:27;;;;;;;;;;;14.40;99.90;;;;;;5092031;28;20011;-78
2022/03/17 14:24:38;;;;;;;;;;;14.40;99.90;;;;;;5091612;28;19957;-78
2022/03/17 14:27:04;;;;;;;;;;;14.40;99.90;;;;;;5091297;28;19914;-78
2022/03/17 14:29:29;;;;;;;;;;;14.40;99.90;;;;;;5092083;28;19908;-79
2022/03/17 14:31:55;;;;;;;;;;;14.40;99.90;;;;;;5091520;28;19916;-78
2022/03/17 14:34:22;;;;;;;;;;;14.50;99.90;;;;;;5090528;28;19908;-78
2022/03/17 14:36:48;;;;;;;;;;;14.60;99.90;;;;;;5090041;28;19908;-78
2022/03/17 14:39:14;;;;;;;;;;;14.60;99.90;;;;;;5093520;28;19916;-78
2022/03/17 14:41:40;;;;;;;;;;;14.70;99.90;;;;;;5095581;28;19908;-78
2022/03/17 14:44:06;;;;;;;;;;;14.60;99.90;;;;;;5095099;28;20008;-78
2022/03/17 14:46:32;;;;;;;;;;;14.60;99.90;;;;;;5095510;28;19912;-79